Tropical Cyclones
[Index]
Main Index Home Page Stock Weather Photos Extreme Storms Discussion Storm News and Storm Chasing Reports Tropical Cyclones / Hurricanes / Typhoons Weather Data and Links Wild Fires / Bushfires Weather Observation Techniques Weather Picture Catalogue Tornado Pictures and Reports Stock Video Footage and DVDs for sale
Season 2009-2010 Tropical Cyclone PAT Track Map
Season 2009-2010 Summaries (Operational Data): [AU] [SIO] [SPAC] [SH]
<<- Previous TC | 2009-2010 Season | Next TC ->>

click for intensity scale information  Lat/long Grid: Show Hide

 Date Labels: Show Hide

Operational Tropical Cyclone Data : JTWC Advisories

Name: PAT
Number: 1014

06 Feb 2010 21:00 UTC to 11 Feb 2010 18:00 UTC

    date/time    lat    long     hPa   cat  kts
2010-02-06 21    8.6   165.3W   1004         25          
2010-02-07 06    9.0   164.5W   1003         25          
2010-02-07 12    9.7   164.2W                            
2010-02-07 18   10.8   162.6W   1003         25          
2010-02-08 00   11.7   161.4W    995    1    40          
2010-02-08 06   12.5   161.1W    990    1    40          
2010-02-08 12   13.2   160.5W    990    1    40          
2010-02-08 18   14.0   159.6W    985    2    50          
2010-02-09 00   14.5   159.4W    985    2    50          
2010-02-09 06   15.1   159.1W    975    2    60          
2010-02-09 12   15.5   158.8W    975    2    60          
2010-02-09 18   16.5   158.9W    975    2    60          
2010-02-10 00   17.4   159.1W    975    2    60          
2010-02-10 06   18.1   159.3W    960    3    75          
2010-02-10 12   18.7   159.6W    960    3    75          
2010-02-10 18   19.2   160.0W    965    3    70          
2010-02-11 00   20.0   161.5W    970    2    60          
2010-02-11 06   20.8   162.9W    995    1    35          
2010-02-11 12   21.5   163.6W                            
2010-02-11 18   21.5   165.8W                            
Winds are 10-min average.

Tropical cyclone tracks developed by Michael Bath using operational warnings and advisories and Google Maps.


[Australian Severe Weather index] [Copyright Notice] [Email Contacts] [Search This Site] [Privacy Policy]
Document: tropical_cyclone_pat.htm Updated: 28 May 2013